INFORMACIÓN METAR y TAF
METAR FOR EGLC
ADDS - METARS form results

(0237 UTC 16 December 2019)
Data provider http://aviationweather.gov/metar/data/
 
METAR text: EGLC 160220Z AUTO 21009KT 9999 NCD 08/05 Q0999
Conditions at: EGLC (LONDON CITY AIRP, GB) observed 0220 UTC 16 December 2019
Temperature: 8.0°C (46°F)
Dewpoint: 5.0°C (41°F) [RH = 81%]
Pressure (altimeter): 29.50 inches Hg (999.0 mb)
Winds: from the SSW (210 degrees) at 10 MPH (9 knots; 4.6 m/s)
Visibility: 6 or more miles (10+ km)
Ceiling: at least 12,000 feet AGL
Clouds: sky clear below 12,000 feet AGL
Weather: no significant weather observed at this time

METAR text: EGLC 160150Z AUTO 20008KT 9999 NCD 08/05 Q0999
Conditions at: EGLC (LONDON CITY AIRP, GB) observed 0150 UTC 16 December 2019
Temperature: 8.0°C (46°F)
Dewpoint: 5.0°C (41°F) [RH = 81%]
Pressure (altimeter): 29.50 inches Hg (999.0 mb)
Winds: from the SSW (200 degrees) at 9 MPH (8 knots; 4.1 m/s)
Visibility: 6 or more miles (10+ km)
Ceiling: at least 12,000 feet AGL
Clouds: sky clear below 12,000 feet AGL
Weather: no significant weather observed at this time

Forecast for: EGLC (LONDON CITY AIRP, GB)
Text: TAF EGLC 160207Z 1603/1612 20006KT 9999 FEW030
Forecast period: 0300 to 1200 UTC 16 December 2019
Forecast type: FROM: standard forecast or significant change
Winds: from the SSW (200 degrees) at 7 MPH (6 knots; 3.1 m/s)
Visibility: 6 or more miles 10+ km)
Ceiling: at least 12,000 feet AGL
Clouds: few clouds at 3000 feet AGL
Weather: no significant weather forecast for this period

MAPA DE AEROPUERTO

INFORMACIÓN DE PISTA
Pista 10 Longitud 4948 ft Ancho 98 ft
Elevación 16 ft Umbral desplazado 358 ft Rumbo de pista 93
Pista 28 Longitud 4948 ft Ancho 98 ft
Elevación 19 ft Umbral desplazado 211 ft Rumbo de pista 273

FRECUANCIAS DEL AEROPUERTO
Tipo APP Nombre APP Frecuencia 132.7 MHZ
Tipo ATIS Nombre ATIS Frecuencia 136.35 MHZ
Tipo GND Nombre GND Frecuencia 121.825 MHZ
Tipo TWR Nombre TWR Frecuencia 118.075 MHZ

RADIO AYUDAS DEL AEROPUERTO
Tipo NDB Nombre City Frecuencia 322 KHZ